Current | Forecast
Updated: 1:00 PM CEST on May 22, 2018
Observed at Budapest Ferihegy, Hungary
Temperature 22°C
Humidity 69%
Dew Point 16°C
Wind ESE at 17 km/h
Pressure 1017 hPa (Rising)
Conditions Mostly Cloudy
Visibility 10.0 kilometers
UV 5 out of 16
Clouds (FEW) : 1066 m
Mostly Cloudy (BKN) : 1554 m
Yesterday's Maximum 24°C
Yesterday's Minimum 12°C approx.
Yesterday's Heating Degree Days 1 approx.
Sunrise4:56 AM CEST
Sunset8:23 PM CEST
Moon Rise12:19 PM CEST
Moon Set1:51 AM CEST
Moon PhaseMoon Phase
First Quarter
Raw METARMETAR LHBP 221100Z 11009KT 080V150 9999 FEW035 BKN051 22/16 Q1017 NOSIG


Monday
. High: 62° F.
Tuesday
. High: 75° F.
Wednesday
. High: 78° F.
Thursday
. High: 80° F.
Friday
. High: 73° F.
Saturday
. High: 75° F.
Sunday
. High: 78° F.
Monday
. High: 73° F.

Units: English | Metric

Find the Weather for any City, State or Zipcode, or Country:

U.S. State List | Severe Weather | Tropical Storms | Ski Conditions
United States | Canada | Central America | South America | Asia | Europe | Australia | Africa | Islands

Weather Underground

© Copyright 2018
The Weather Company, LLC